Terminal Aerodrome Forecast
Issued by NWS

Home | Current Version | Previous Version | Graphics & Text | Print | Product List | Glossary On
Versions: 1 2 3 4 5 6 7 8 9 10 11 12 13 14 15 16 17 18 19 20
000
FTUS43 KGRB 070851 AAA
TAFCWA
TAF AMD
KCWA 070851Z 0709/0806 33008KT 5SM FU SCT010 SCT035
      TEMPO 0709/0713 2SM BR BKN009 BKN030
     FM071400 35010KT P6SM SCT025
     FM072300 36005KT P6SM SKC=

USA.gov is the U.S. government's official web portal to all federal, state and local government web resources and services.